sensor_id;sensor_type;location;lat;lon;timestamp;pressure;altitude;pressure_sealevel;temperature;humidity
44441;BME280;30146;52.268;20.944;2022-09-09T00:00:49;100116.88;;;12.74;56.51
44441;BME280;30146;52.268;20.944;2022-09-09T00:03:27;100116.17;;;12.68;56.83
44441;BME280;30146;52.268;20.944;2022-09-09T00:06:12;100115.30;;;12.61;57.21
44441;BME280;30146;52.268;20.944;2022-09-09T00:08:56;100114.95;;;12.53;57.63
44441;BME280;30146;52.268;20.944;2022-09-09T00:11:37;100106.34;;;12.46;57.88
44441;BME280;30146;52.268;20.944;2022-09-09T00:14:14;100112.13;;;12.40;58.25
44441;BME280;30146;52.268;20.944;2022-09-09T00:16:53;100114.98;;;12.36;58.52
44441;BME280;30146;52.268;20.944;2022-09-09T00:19:30;100116.45;;;12.30;58.70
44441;BME280;30146;52.268;20.944;2022-09-09T00:22:14;100106.27;;;12.25;58.89
44441;BME280;30146;52.268;20.944;2022-09-09T00:24:48;100111.52;;;12.19;59.19
44441;BME280;30146;52.268;20.944;2022-09-09T00:27:25;100105.30;;;12.13;59.53
44441;BME280;30146;52.268;20.944;2022-09-09T00:30:11;100104.04;;;12.07;59.83
44441;BME280;30146;52.268;20.944;2022-09-09T00:32:44;100095.52;;;12.04;60.04
44441;BME280;30146;52.268;20.944;2022-09-09T00:35:21;100098.13;;;12.03;60.28
44441;BME280;30146;52.268;20.944;2022-09-09T00:37:55;100095.41;;;12.02;60.51
44441;BME280;30146;52.268;20.944;2022-09-09T00:40:31;100096.46;;;12.02;60.73
44441;BME280;30146;52.268;20.944;2022-09-09T00:43:18;100097.50;;;12.00;60.95
44441;BME280;30146;52.268;20.944;2022-09-09T00:46:05;100092.73;;;11.99;61.13
44441;BME280;30146;52.268;20.944;2022-09-09T00:48:49;100095.54;;;11.96;61.29
44441;BME280;30146;52.268;20.944;2022-09-09T00:51:29;100100.70;;;11.94;61.46
44441;BME280;30146;52.268;20.944;2022-09-09T00:54:26;100098.16;;;11.92;61.50
44441;BME280;30146;52.268;20.944;2022-09-09T00:57:10;100096.95;;;11.92;61.91
44441;BME280;30146;52.268;20.944;2022-09-09T00:59:48;100092.16;;;11.92;61.96
44441;BME280;30146;52.268;20.944;2022-09-09T01:02:27;100089.91;;;11.93;62.08
44441;BME280;30146;52.268;20.944;2022-09-09T01:05:04;100092.16;;;11.93;62.31
44441;BME280;30146;52.268;20.944;2022-09-09T01:07:38;100093.51;;;11.93;62.35
44441;BME280;30146;52.268;20.944;2022-09-09T01:10:17;100093.70;;;11.93;62.60
44441;BME280;30146;52.268;20.944;2022-09-09T01:12:52;100097.95;;;11.94;62.66
44441;BME280;30146;52.268;20.944;2022-09-09T01:15:30;100098.98;;;11.95;62.81
44441;BME280;30146;52.268;20.944;2022-09-09T01:18:06;100099.45;;;11.97;62.87
44441;BME280;30146;52.268;20.944;2022-09-09T01:20:49;100091.73;;;11.97;62.85
44441;BME280;30146;52.268;20.944;2022-09-09T01:23:44;100088.18;;;11.95;63.04
44441;BME280;30146;52.268;20.944;2022-09-09T01:26:27;100086.34;;;11.92;63.16
44441;BME280;30146;52.268;20.944;2022-09-09T01:29:02;100084.30;;;11.90;63.29
44441;BME280;30146;52.268;20.944;2022-09-09T01:31:41;100084.16;;;11.90;63.49
44441;BME280;30146;52.268;20.944;2022-09-09T01:34:14;100079.35;;;11.90;63.50
44441;BME280;30146;52.268;20.944;2022-09-09T01:36:51;100075.41;;;11.90;63.69
44441;BME280;30146;52.268;20.944;2022-09-09T01:39:24;100075.25;;;11.90;63.85
44441;BME280;30146;52.268;20.944;2022-09-09T01:42:06;100078.01;;;11.88;63.80
44441;BME280;30146;52.268;20.944;2022-09-09T01:44:39;100080.58;;;11.87;63.92
44441;BME280;30146;52.268;20.944;2022-09-09T01:47:10;100079.92;;;11.86;63.84
44441;BME280;30146;52.268;20.944;2022-09-09T01:49:55;100074.44;;;11.86;64.12
44441;BME280;30146;52.268;20.944;2022-09-09T01:52:29;100077.68;;;11.86;64.29
44441;BME280;30146;52.268;20.944;2022-09-09T01:55:00;100073.05;;;11.87;64.46
44441;BME280;30146;52.268;20.944;2022-09-09T01:57:41;100075.09;;;11.89;64.60
44441;BME280;30146;52.268;20.944;2022-09-09T02:00:16;100087.42;;;11.88;64.62
44441;BME280;30146;52.268;20.944;2022-09-09T02:02:57;100080.94;;;11.87;64.80
44441;BME280;30146;52.268;20.944;2022-09-09T02:05:39;100080.76;;;11.87;64.77
44441;BME280;30146;52.268;20.944;2022-09-09T02:08:24;100073.25;;;11.85;64.85
44441;BME280;30146;52.268;20.944;2022-09-09T02:11:08;100071.53;;;11.86;64.98
44441;BME280;30146;52.268;20.944;2022-09-09T02:14:08;100075.61;;;11.87;65.17
44441;BME280;30146;52.268;20.944;2022-09-09T02:16:50;100076.80;;;11.88;65.11
44441;BME280;30146;52.268;20.944;2022-09-09T02:19:25;100082.79;;;11.89;65.14
44441;BME280;30146;52.268;20.944;2022-09-09T02:22:05;100071.01;;;11.86;65.20
44441;BME280;30146;52.268;20.944;2022-09-09T02:24:39;100064.20;;;11.85;65.31
44441;BME280;30146;52.268;20.944;2022-09-09T02:27:18;100061.33;;;11.83;65.44
44441;BME280;30146;52.268;20.944;2022-09-09T02:29:50;100061.15;;;11.82;65.45
44441;BME280;30146;52.268;20.944;2022-09-09T02:32:33;100063.55;;;11.83;65.57
44441;BME280;30146;52.268;20.944;2022-09-09T02:35:10;100062.00;;;11.83;65.63
44441;BME280;30146;52.268;20.944;2022-09-09T02:37:44;100071.23;;;11.84;65.79
44441;BME280;30146;52.268;20.944;2022-09-09T02:40:17;100066.96;;;11.84;65.82
44441;BME280;30146;52.268;20.944;2022-09-09T02:42:51;100072.09;;;11.84;66.06
44441;BME280;30146;52.268;20.944;2022-09-09T02:45:27;100075.66;;;11.85;66.07
44441;BME280;30146;52.268;20.944;2022-09-09T02:48:06;100073.77;;;11.86;66.20
44441;BME280;30146;52.268;20.944;2022-09-09T02:50:45;100078.35;;;11.88;66.05
44441;BME280;30146;52.268;20.944;2022-09-09T02:53:22;100079.39;;;11.87;66.10
44441;BME280;30146;52.268;20.944;2022-09-09T02:55:57;100084.14;;;11.90;66.27
44441;BME280;30146;52.268;20.944;2022-09-09T02:58:33;100085.99;;;11.92;66.38
44441;BME280;30146;52.268;20.944;2022-09-09T03:01:06;100081.20;;;11.92;66.30
44441;BME280;30146;52.268;20.944;2022-09-09T03:03:38;100081.85;;;11.94;66.49
44441;BME280;30146;52.268;20.944;2022-09-09T03:06:14;100079.11;;;11.94;66.52
44441;BME280;30146;52.268;20.944;2022-09-09T03:08:47;100076.55;;;11.94;66.50
44441;BME280;30146;52.268;20.944;2022-09-09T03:11:23;100074.50;;;11.93;66.66
44441;BME280;30146;52.268;20.944;2022-09-09T03:13:54;100077.64;;;11.91;66.50
44441;BME280;30146;52.268;20.944;2022-09-09T03:16:27;100077.64;;;11.90;66.58
44441;BME280;30146;52.268;20.944;2022-09-09T03:18:59;100074.21;;;11.90;66.79
44441;BME280;30146;52.268;20.944;2022-09-09T03:21:30;100070.11;;;11.90;66.84
44441;BME280;30146;52.268;20.944;2022-09-09T03:24:02;100074.05;;;11.90;66.99
44441;BME280;30146;52.268;20.944;2022-09-09T03:26:34;100075.05;;;11.91;67.01
44441;BME280;30146;52.268;20.944;2022-09-09T03:29:05;100070.63;;;11.90;67.11
44441;BME280;30146;52.268;20.944;2022-09-09T03:31:37;100065.11;;;11.92;67.20
44441;BME280;30146;52.268;20.944;2022-09-09T03:34:08;100068.67;;;11.94;67.28
44441;BME280;30146;52.268;20.944;2022-09-09T03:36:39;100068.15;;;11.94;67.34
44441;BME280;30146;52.268;20.944;2022-09-09T03:39:11;100071.05;;;11.95;67.40
44441;BME280;30146;52.268;20.944;2022-09-09T03:41:43;100063.02;;;11.93;67.29
44441;BME280;30146;52.268;20.944;2022-09-09T03:44:17;100064.26;;;11.92;67.41
44441;BME280;30146;52.268;20.944;2022-09-09T03:46:48;100068.91;;;11.91;67.54
44441;BME280;30146;52.268;20.944;2022-09-09T03:49:19;100068.58;;;11.89;67.63
44441;BME280;30146;52.268;20.944;2022-09-09T03:51:52;100067.41;;;11.87;67.59
44441;BME280;30146;52.268;20.944;2022-09-09T03:54:23;100069.80;;;11.86;67.77
44441;BME280;30146;52.268;20.944;2022-09-09T03:56:55;100073.21;;;11.87;67.94
44441;BME280;30146;52.268;20.944;2022-09-09T03:59:25;100080.21;;;11.89;68.10
44441;BME280;30146;52.268;20.944;2022-09-09T04:01:56;100072.80;;;11.92;68.14
44441;BME280;30146;52.268;20.944;2022-09-09T04:04:29;100076.33;;;11.97;68.32
44441;BME280;30146;52.268;20.944;2022-09-09T04:07:00;100076.27;;;12.00;68.25
44441;BME280;30146;52.268;20.944;2022-09-09T04:09:31;100074.88;;;12.01;68.21
44441;BME280;30146;52.268;20.944;2022-09-09T04:12:03;100069.38;;;12.01;68.14
44441;BME280;30146;52.268;20.944;2022-09-09T04:14:36;100074.85;;;12.02;68.26
44441;BME280;30146;52.268;20.944;2022-09-09T04:17:07;100071.09;;;12.02;68.44
44441;BME280;30146;52.268;20.944;2022-09-09T04:19:39;100072.63;;;12.02;68.35
44441;BME280;30146;52.268;20.944;2022-09-09T04:22:12;100071.96;;;12.01;68.35
44441;BME280;30146;52.268;20.944;2022-09-09T04:24:43;100066.84;;;12.00;68.43
44441;BME280;30146;52.268;20.944;2022-09-09T04:27:18;100071.92;;;12.03;68.64
44441;BME280;30146;52.268;20.944;2022-09-09T04:29:49;100070.34;;;12.05;68.71
44441;BME280;30146;52.268;20.944;2022-09-09T04:32:20;100075.77;;;12.08;68.84
44441;BME280;30146;52.268;20.944;2022-09-09T04:34:51;100072.63;;;12.10;68.87
44441;BME280;30146;52.268;20.944;2022-09-09T04:37:23;100071.41;;;12.11;68.91
44441;BME280;30146;52.268;20.944;2022-09-09T04:39:55;100070.54;;;12.12;68.86
44441;BME280;30146;52.268;20.944;2022-09-09T04:42:27;100072.54;;;12.15;68.93
44441;BME280;30146;52.268;20.944;2022-09-09T04:44:58;100072.17;;;12.16;68.96
44441;BME280;30146;52.268;20.944;2022-09-09T04:47:29;100072.68;;;12.17;68.93
44441;BME280;30146;52.268;20.944;2022-09-09T04:50:02;100071.98;;;12.16;68.97
44441;BME280;30146;52.268;20.944;2022-09-09T04:52:36;100079.36;;;12.17;69.09
44441;BME280;30146;52.268;20.944;2022-09-09T04:55:09;100085.67;;;12.18;68.97
44441;BME280;30146;52.268;20.944;2022-09-09T04:57:43;100082.95;;;12.18;69.09
44441;BME280;30146;52.268;20.944;2022-09-09T05:00:16;100087.54;;;12.19;69.24
44441;BME280;30146;52.268;20.944;2022-09-09T05:02:49;100087.35;;;12.20;69.24
44441;BME280;30146;52.268;20.944;2022-09-09T05:05:24;100090.70;;;12.23;69.26
44441;BME280;30146;52.268;20.944;2022-09-09T05:07:54;100084.52;;;12.24;69.30
44441;BME280;30146;52.268;20.944;2022-09-09T05:10:26;100093.36;;;12.27;69.35
44441;BME280;30146;52.268;20.944;2022-09-09T05:12:57;100092.81;;;12.29;69.30
44441;BME280;30146;52.268;20.944;2022-09-09T05:15:30;100091.41;;;12.31;69.39
44441;BME280;30146;52.268;20.944;2022-09-09T05:18:02;100091.88;;;12.33;69.40
44441;BME280;30146;52.268;20.944;2022-09-09T05:20:35;100092.84;;;12.36;69.55
44441;BME280;30146;52.268;20.944;2022-09-09T05:23:06;100094.70;;;12.38;69.59
44441;BME280;30146;52.268;20.944;2022-09-09T05:25:39;100094.14;;;12.39;69.45
44441;BME280;30146;52.268;20.944;2022-09-09T05:28:11;100092.08;;;12.40;69.54
44441;BME280;30146;52.268;20.944;2022-09-09T05:30:42;100094.45;;;12.41;69.50
44441;BME280;30146;52.268;20.944;2022-09-09T05:33:14;100093.73;;;12.42;69.49
44441;BME280;30146;52.268;20.944;2022-09-09T05:35:46;100091.30;;;12.45;69.67
44441;BME280;30146;52.268;20.944;2022-09-09T05:38:19;100091.73;;;12.48;69.64
44441;BME280;30146;52.268;20.944;2022-09-09T05:40:56;100096.45;;;12.52;69.68
44441;BME280;30146;52.268;20.944;2022-09-09T05:43:28;100093.79;;;12.56;69.74
44441;BME280;30146;52.268;20.944;2022-09-09T05:46:03;100090.78;;;12.60;69.72
44441;BME280;30146;52.268;20.944;2022-09-09T05:48:39;100093.29;;;12.64;69.79
44441;BME280;30146;52.268;20.944;2022-09-09T05:51:12;100090.82;;;12.66;69.64
44441;BME280;30146;52.268;20.944;2022-09-09T05:53:46;100094.73;;;12.69;69.54
44441;BME280;30146;52.268;20.944;2022-09-09T05:56:20;100098.61;;;12.71;69.58
44441;BME280;30146;52.268;20.944;2022-09-09T05:58:52;100097.88;;;12.74;69.66
44441;BME280;30146;52.268;20.944;2022-09-09T06:01:26;100094.70;;;12.77;69.67
44441;BME280;30146;52.268;20.944;2022-09-09T06:03:59;100095.64;;;12.81;69.67
44441;BME280;30146;52.268;20.944;2022-09-09T06:06:32;100099.63;;;12.87;69.88
44441;BME280;30146;52.268;20.944;2022-09-09T06:09:09;100103.58;;;12.95;69.79
44441;BME280;30146;52.268;20.944;2022-09-09T06:11:43;100103.80;;;13.00;69.63
44441;BME280;30146;52.268;20.944;2022-09-09T06:14:16;100104.60;;;13.02;69.42
44441;BME280;30146;52.268;20.944;2022-09-09T06:16:49;100108.79;;;13.07;69.57
44441;BME280;30146;52.268;20.944;2022-09-09T06:19:26;100110.90;;;13.11;69.37
44441;BME280;30146;52.268;20.944;2022-09-09T06:21:59;100112.20;;;13.14;69.32
44441;BME280;30146;52.268;20.944;2022-09-09T06:24:32;100119.80;;;13.20;69.49
44441;BME280;30146;52.268;20.944;2022-09-09T06:27:04;100119.33;;;13.25;69.35
44441;BME280;30146;52.268;20.944;2022-09-09T06:29:37;100123.51;;;13.31;69.35
44441;BME280;30146;52.268;20.944;2022-09-09T06:32:08;100120.52;;;13.34;69.12
44441;BME280;30146;52.268;20.944;2022-09-09T06:34:39;100119.59;;;13.37;69.17
44441;BME280;30146;52.268;20.944;2022-09-09T06:37:10;100122.80;;;13.39;68.99
44441;BME280;30146;52.268;20.944;2022-09-09T06:39:48;100124.79;;;13.42;69.04
44441;BME280;30146;52.268;20.944;2022-09-09T06:42:19;100121.65;;;13.43;69.00
44441;BME280;30146;52.268;20.944;2022-09-09T06:45:09;100120.64;;;13.43;68.79
44441;BME280;30146;52.268;20.944;2022-09-09T06:47:47;100124.59;;;13.43;68.76
44441;BME280;30146;52.268;20.944;2022-09-09T06:50:21;100125.45;;;13.43;68.81
44441;BME280;30146;52.268;20.944;2022-09-09T06:52:52;100127.84;;;13.43;68.92
44441;BME280;30146;52.268;20.944;2022-09-09T06:55:24;100126.35;;;13.41;68.84
44441;BME280;30146;52.268;20.944;2022-09-09T06:57:55;100129.13;;;13.40;68.92
44441;BME280;30146;52.268;20.944;2022-09-09T07:00:26;100133.27;;;13.39;68.96
44441;BME280;30146;52.268;20.944;2022-09-09T07:02:58;100137.14;;;13.36;68.84
44441;BME280;30146;52.268;20.944;2022-09-09T07:05:31;100138.58;;;13.33;68.96
44441;BME280;30146;52.268;20.944;2022-09-09T07:08:03;100136.20;;;13.31;68.99
44441;BME280;30146;52.268;20.944;2022-09-09T07:10:37;100140.16;;;13.29;68.88
44441;BME280;30146;52.268;20.944;2022-09-09T07:13:08;100141.88;;;13.30;69.10
44441;BME280;30146;52.268;20.944;2022-09-09T07:15:42;100142.39;;;13.32;69.24
44441;BME280;30146;52.268;20.944;2022-09-09T07:18:14;100140.64;;;13.33;69.37
44441;BME280;30146;52.268;20.944;2022-09-09T07:20:54;100142.16;;;13.34;69.29
44441;BME280;30146;52.268;20.944;2022-09-09T07:23:27;100142.55;;;13.32;69.23
44441;BME280;30146;52.268;20.944;2022-09-09T07:26:09;100146.34;;;13.30;69.24
44441;BME280;30146;52.268;20.944;2022-09-09T07:28:43;100147.25;;;13.28;69.34
44441;BME280;30146;52.268;20.944;2022-09-09T07:31:20;100152.41;;;13.27;69.36
44441;BME280;30146;52.268;20.944;2022-09-09T07:33:52;100151.06;;;13.26;69.51
44441;BME280;30146;52.268;20.944;2022-09-09T07:36:24;100150.38;;;13.26;69.50
44441;BME280;30146;52.268;20.944;2022-09-09T07:39:06;100156.31;;;13.28;69.61
44441;BME280;30146;52.268;20.944;2022-09-09T07:41:39;100160.06;;;13.29;69.58
44441;BME280;30146;52.268;20.944;2022-09-09T07:44:13;100161.10;;;13.32;69.66
44441;BME280;30146;52.268;20.944;2022-09-09T07:46:45;100159.03;;;13.32;69.63
44441;BME280;30146;52.268;20.944;2022-09-09T07:49:21;100156.41;;;13.33;69.73
44441;BME280;30146;52.268;20.944;2022-09-09T07:52:01;100157.43;;;13.34;69.77
44441;BME280;30146;52.268;20.944;2022-09-09T07:54:33;100158.60;;;13.35;69.68
44441;BME280;30146;52.268;20.944;2022-09-09T07:57:07;100165.29;;;13.36;69.78
44441;BME280;30146;52.268;20.944;2022-09-09T07:59:40;100165.55;;;13.39;69.85
44441;BME280;30146;52.268;20.944;2022-09-09T08:02:11;100169.05;;;13.43;69.90
44441;BME280;30146;52.268;20.944;2022-09-09T08:04:42;100175.98;;;13.47;69.94
44441;BME280;30146;52.268;20.944;2022-09-09T08:07:16;100177.06;;;13.53;70.14
44441;BME280;30146;52.268;20.944;2022-09-09T08:09:53;100182.79;;;13.57;70.10
44441;BME280;30146;52.268;20.944;2022-09-09T08:12:29;100183.96;;;13.59;69.85
44441;BME280;30146;52.268;20.944;2022-09-09T08:15:00;100185.18;;;13.58;69.84
44441;BME280;30146;52.268;20.944;2022-09-09T08:17:33;100185.83;;;13.60;69.79
44441;BME280;30146;52.268;20.944;2022-09-09T08:20:07;100188.16;;;13.63;70.01
44441;BME280;30146;52.268;20.944;2022-09-09T08:22:38;100194.23;;;13.67;70.00
44441;BME280;30146;52.268;20.944;2022-09-09T08:25:09;100192.52;;;13.67;69.97
44441;BME280;30146;52.268;20.944;2022-09-09T08:27:41;100196.46;;;13.67;69.90
44441;BME280;30146;52.268;20.944;2022-09-09T08:30:18;100194.90;;;13.68;69.90
44441;BME280;30146;52.268;20.944;2022-09-09T08:32:49;100199.19;;;13.69;69.85
44441;BME280;30146;52.268;20.944;2022-09-09T08:35:23;100197.52;;;13.66;69.78
44441;BME280;30146;52.268;20.944;2022-09-09T08:37:57;100198.40;;;13.65;69.88
44441;BME280;30146;52.268;20.944;2022-09-09T08:40:32;100198.21;;;13.66;69.92
44441;BME280;30146;52.268;20.944;2022-09-09T08:43:09;100202.05;;;13.71;70.24
44441;BME280;30146;52.268;20.944;2022-09-09T08:45:54;100200.98;;;13.73;70.09
44441;BME280;30146;52.268;20.944;2022-09-09T08:48:43;100202.54;;;13.79;70.40
44441;BME280;30146;52.268;20.944;2022-09-09T08:51:16;100201.67;;;13.86;70.38
44441;BME280;30146;52.268;20.944;2022-09-09T08:53:49;100204.00;;;13.89;70.10
44441;BME280;30146;52.268;20.944;2022-09-09T08:56:29;100207.29;;;13.88;69.94
44441;BME280;30146;52.268;20.944;2022-09-09T08:59:03;100204.14;;;13.90;70.27
44441;BME280;30146;52.268;20.944;2022-09-09T09:01:45;100204.36;;;13.95;70.33
44441;BME280;30146;52.268;20.944;2022-09-09T09:04:45;100204.02;;;14.02;70.47
44441;BME280;30146;52.268;20.944;2022-09-09T09:07:33;100199.00;;;14.10;70.46
44441;BME280;30146;52.268;20.944;2022-09-09T09:10:15;100205.34;;;14.17;70.39
44441;BME280;30146;52.268;20.944;2022-09-09T09:13:14;100208.64;;;14.22;70.36
44441;BME280;30146;52.268;20.944;2022-09-09T09:15:50;100212.86;;;14.25;70.17
44441;BME280;30146;52.268;20.944;2022-09-09T09:18:23;100210.38;;;14.28;70.04
44441;BME280;30146;52.268;20.944;2022-09-09T09:21:01;100212.36;;;14.31;70.13
44441;BME280;30146;52.268;20.944;2022-09-09T09:23:40;100217.36;;;14.30;69.76
44441;BME280;30146;52.268;20.944;2022-09-09T09:26:14;100225.96;;;14.30;69.89
44441;BME280;30146;52.268;20.944;2022-09-09T09:28:46;100229.05;;;14.30;69.88
44441;BME280;30146;52.268;20.944;2022-09-09T09:31:21;100232.73;;;14.29;69.88
44441;BME280;30146;52.268;20.944;2022-09-09T09:33:57;100228.36;;;14.24;69.68
44441;BME280;30146;52.268;20.944;2022-09-09T09:36:38;100228.80;;;14.20;69.64
44441;BME280;30146;52.268;20.944;2022-09-09T09:39:21;100226.35;;;14.15;69.73
44441;BME280;30146;52.268;20.944;2022-09-09T09:42:15;100233.08;;;14.15;69.90
44441;BME280;30146;52.268;20.944;2022-09-09T09:44:53;100235.21;;;14.12;69.88
44441;BME280;30146;52.268;20.944;2022-09-09T09:47:24;100232.89;;;14.09;69.81
44441;BME280;30146;52.268;20.944;2022-09-09T09:50:20;100231.75;;;14.05;69.94
44441;BME280;30146;52.268;20.944;2022-09-09T09:52:57;100230.96;;;14.03;69.88
44441;BME280;30146;52.268;20.944;2022-09-09T09:55:30;100234.41;;;14.03;70.21
44441;BME280;30146;52.268;20.944;2022-09-09T09:58:13;100229.09;;;14.02;70.28
44441;BME280;30146;52.268;20.944;2022-09-09T10:00:52;100235.42;;;14.03;70.24
44441;BME280;30146;52.268;20.944;2022-09-09T10:03:28;100230.13;;;14.02;70.21
44441;BME280;30146;52.268;20.944;2022-09-09T10:06:00;100228.06;;;14.02;70.31
44441;BME280;30146;52.268;20.944;2022-09-09T10:08:43;100229.05;;;14.03;70.48
44441;BME280;30146;52.268;20.944;2022-09-09T10:11:30;100234.52;;;14.05;70.47
44441;BME280;30146;52.268;20.944;2022-09-09T10:14:12;100239.09;;;14.08;70.50
44441;BME280;30146;52.268;20.944;2022-09-09T10:16:57;100241.98;;;14.09;70.50
44441;BME280;30146;52.268;20.944;2022-09-09T10:19:33;100245.59;;;14.09;70.45
44441;BME280;30146;52.268;20.944;2022-09-09T10:22:15;100246.48;;;14.08;70.51
44441;BME280;30146;52.268;20.944;2022-09-09T10:25:08;100249.40;;;14.08;70.59
44441;BME280;30146;52.268;20.944;2022-09-09T10:27:52;100250.95;;;14.08;70.49
44441;BME280;30146;52.268;20.944;2022-09-09T10:30:39;100253.36;;;14.08;70.56
44441;BME280;30146;52.268;20.944;2022-09-09T10:33:25;100262.14;;;14.08;70.51
44441;BME280;30146;52.268;20.944;2022-09-09T10:36:08;100266.89;;;14.09;70.84
44441;BME280;30146;52.268;20.944;2022-09-09T10:38:44;100273.55;;;14.11;70.67
44441;BME280;30146;52.268;20.944;2022-09-09T10:41:21;100274.92;;;14.12;70.72
44441;BME280;30146;52.268;20.944;2022-09-09T10:44:14;100279.37;;;14.13;70.87
44441;BME280;30146;52.268;20.944;2022-09-09T10:46:57;100285.64;;;14.16;70.88
44441;BME280;30146;52.268;20.944;2022-09-09T10:49:51;100285.58;;;14.19;70.83
44441;BME280;30146;52.268;20.944;2022-09-09T10:52:34;100289.62;;;14.22;70.94
44441;BME280;30146;52.268;20.944;2022-09-09T10:55:15;100292.86;;;14.23;70.87
44441;BME280;30146;52.268;20.944;2022-09-09T10:57:49;100291.27;;;14.24;70.82
44441;BME280;30146;52.268;20.944;2022-09-09T11:00:23;100294.72;;;14.25;70.80
44441;BME280;30146;52.268;20.944;2022-09-09T11:02:57;100297.83;;;14.23;70.90
44441;BME280;30146;52.268;20.944;2022-09-09T11:05:28;100299.73;;;14.23;70.87
44441;BME280;30146;52.268;20.944;2022-09-09T11:08:05;100300.75;;;14.23;71.13
44441;BME280;30146;52.268;20.944;2022-09-09T11:10:44;100303.65;;;14.24;71.14
44441;BME280;30146;52.268;20.944;2022-09-09T11:13:20;100309.67;;;14.24;71.17
44441;BME280;30146;52.268;20.944;2022-09-09T11:16:00;100310.15;;;14.26;71.20
44441;BME280;30146;52.268;20.944;2022-09-09T11:18:35;100312.70;;;14.28;71.14
44441;BME280;30146;52.268;20.944;2022-09-09T11:21:12;100315.23;;;14.29;71.24
44441;BME280;30146;52.268;20.944;2022-09-09T11:23:50;100318.16;;;14.29;71.15
44441;BME280;30146;52.268;20.944;2022-09-09T11:26:31;100313.54;;;14.28;71.09
44441;BME280;30146;52.268;20.944;2022-09-09T11:29:31;100309.42;;;14.28;71.22
44441;BME280;30146;52.268;20.944;2022-09-09T11:32:23;100308.36;;;14.29;71.29
44441;BME280;30146;52.268;20.944;2022-09-09T11:35:06;100310.75;;;14.30;71.26
44441;BME280;30146;52.268;20.944;2022-09-09T11:38:00;100314.41;;;14.28;71.05
44441;BME280;30146;52.268;20.944;2022-09-09T11:40:35;100311.86;;;14.26;71.16
44441;BME280;30146;52.268;20.944;2022-09-09T11:43:10;100313.20;;;14.28;71.44
44441;BME280;30146;52.268;20.944;2022-09-09T11:45:49;100309.52;;;14.31;71.51
44441;BME280;30146;52.268;20.944;2022-09-09T11:48:32;100308.91;;;14.34;71.53
44441;BME280;30146;52.268;20.944;2022-09-09T11:51:09;100309.02;;;14.37;71.57
44441;BME280;30146;52.268;20.944;2022-09-09T11:53:53;100306.96;;;14.43;71.70
44441;BME280;30146;52.268;20.944;2022-09-09T11:56:29;100310.61;;;14.48;71.65
44441;BME280;30146;52.268;20.944;2022-09-09T11:59:04;100315.52;;;14.51;71.61
44441;BME280;30146;52.268;20.944;2022-09-09T12:01:39;100316.82;;;14.54;71.48
44441;BME280;30146;52.268;20.944;2022-09-09T12:04:22;100320.08;;;14.55;71.39
44441;BME280;30146;52.268;20.944;2022-09-09T12:07:01;100318.20;;;14.54;71.20
44441;BME280;30146;52.268;20.944;2022-09-09T12:09:45;100316.21;;;14.58;71.51
44441;BME280;30146;52.268;20.944;2022-09-09T12:12:29;100310.91;;;14.65;71.66
44441;BME280;30146;52.268;20.944;2022-09-09T12:15:16;100309.68;;;14.72;71.60
44441;BME280;30146;52.268;20.944;2022-09-09T12:17:51;100309.48;;;14.80;71.66
44441;BME280;30146;52.268;20.944;2022-09-09T12:20:26;100313.60;;;14.86;71.55
44441;BME280;30146;52.268;20.944;2022-09-09T12:26:00;100317.55;;;14.99;71.66
44441;BME280;30146;52.268;20.944;2022-09-09T12:28:43;100321.92;;;15.02;71.46
44441;BME280;30146;52.268;20.944;2022-09-09T12:31:20;100320.45;;;15.06;71.42
44441;BME280;30146;52.268;20.944;2022-09-09T12:33:52;100317.27;;;15.09;71.31
44441;BME280;30146;52.268;20.944;2022-09-09T12:36:27;100322.46;;;15.13;71.37
44441;BME280;30146;52.268;20.944;2022-09-09T12:39:15;100320.45;;;15.18;71.44
44441;BME280;30146;52.268;20.944;2022-09-09T12:41:55;100323.07;;;15.23;71.37
44441;BME280;30146;52.268;20.944;2022-09-09T12:44:27;100313.82;;;15.27;71.17
44441;BME280;30146;52.268;20.944;2022-09-09T12:47:00;100314.95;;;15.29;71.01
44441;BME280;30146;52.268;20.944;2022-09-09T12:49:34;100311.18;;;15.34;71.21
44441;BME280;30146;52.268;20.944;2022-09-09T12:52:07;100308.67;;;15.37;71.02
44441;BME280;30146;52.268;20.944;2022-09-09T12:54:45;100310.69;;;15.39;71.10
44441;BME280;30146;52.268;20.944;2022-09-09T12:57:17;100308.02;;;15.42;71.21
44441;BME280;30146;52.268;20.944;2022-09-09T12:59:48;100305.02;;;15.45;71.12
44441;BME280;30146;52.268;20.944;2022-09-09T13:02:21;100307.18;;;15.48;71.03
44441;BME280;30146;52.268;20.944;2022-09-09T13:04:53;100314.79;;;15.52;71.09
44441;BME280;30146;52.268;20.944;2022-09-09T13:07:25;100319.48;;;15.56;70.98
44441;BME280;30146;52.268;20.944;2022-09-09T13:09:56;100318.13;;;15.55;70.77
44441;BME280;30146;52.268;20.944;2022-09-09T13:12:28;100314.71;;;15.54;70.68
44441;BME280;30146;52.268;20.944;2022-09-09T13:14:59;100315.42;;;15.54;70.49
44441;BME280;30146;52.268;20.944;2022-09-09T13:17:31;100309.96;;;15.52;70.54
44441;BME280;30146;52.268;20.944;2022-09-09T13:20:03;100308.07;;;15.52;70.50
44441;BME280;30146;52.268;20.944;2022-09-09T13:22:35;100313.54;;;15.54;70.62
44441;BME280;30146;52.268;20.944;2022-09-09T13:25:19;100312.98;;;15.54;70.66
44441;BME280;30146;52.268;20.944;2022-09-09T13:27:57;100307.09;;;15.56;70.81
44441;BME280;30146;52.268;20.944;2022-09-09T13:30:31;100306.42;;;15.55;70.53